createdAt,value
2017-09-10T00:00:39.617Z,13.90
2017-09-10T00:03:10.858Z,14.10
2017-09-10T00:05:41.898Z,13.60
2017-09-10T00:08:13.302Z,13.77
2017-09-10T00:10:44.525Z,14.40
2017-09-10T00:13:15.664Z,15.77
2017-09-10T00:15:46.833Z,16.57
2017-09-10T00:18:17.955Z,17.60
2017-09-10T00:20:49.567Z,17.37
2017-09-10T00:23:20.735Z,17.30
2017-09-10T00:25:52.016Z,19.53
2017-09-10T00:28:23.115Z,17.57
2017-09-10T00:30:54.220Z,17.73
2017-09-10T00:33:25.351Z,17.53
2017-09-10T00:35:56.467Z,17.67
2017-09-10T00:38:28.170Z,15.57
2017-09-10T00:40:59.487Z,16.27
2017-09-10T00:43:30.625Z,16.47
2017-09-10T00:46:01.726Z,16.77
2017-09-10T00:48:32.952Z,16.20
2017-09-10T00:51:05.153Z,16.20
2017-09-10T00:53:36.351Z,18.30
2017-09-10T00:56:08.458Z,20.00
2017-09-10T00:58:39.696Z,16.90
2017-09-10T01:01:10.921Z,17.10
2017-09-10T01:03:42.106Z,16.47
2017-09-10T01:06:13.269Z,14.97
2017-09-10T01:08:44.880Z,16.30
2017-09-10T01:11:16.144Z,14.30
2017-09-10T01:13:47.307Z,14.90
2017-09-10T01:16:18.508Z,13.90
2017-09-10T01:18:49.623Z,11.60
2017-09-10T01:21:22.069Z,10.80
2017-09-10T01:23:53.316Z,10.70
2017-09-10T01:26:24.867Z,10.53
2017-09-10T01:28:56.098Z,9.50
2017-09-10T01:31:27.310Z,8.60
2017-09-10T01:33:58.345Z,7.80
2017-09-10T01:36:29.510Z,7.30
2017-09-10T01:39:00.928Z,5.90
2017-09-10T01:41:32.010Z,5.57
2017-09-10T01:44:03.172Z,5.30
2017-09-10T01:46:34.430Z,5.10
2017-09-10T01:49:05.604Z,5.50
2017-09-10T01:51:38.614Z,4.93
2017-09-10T01:54:09.635Z,4.70
2017-09-10T01:56:41.956Z,6.73
2017-09-10T01:59:13.187Z,6.20
2017-09-10T02:01:44.378Z,5.80
2017-09-10T02:04:15.541Z,5.47
2017-09-10T02:06:47.549Z,5.90
2017-09-10T02:09:19.123Z,5.37
2017-09-10T02:11:50.157Z,5.23
2017-09-10T02:14:21.355Z,5.60
2017-09-10T02:16:52.623Z,6.00
2017-09-10T02:19:23.846Z,5.83
2017-09-10T02:21:55.490Z,6.70
2017-09-10T02:24:27.476Z,9.63
2017-09-10T02:26:58.854Z,6.77
2017-09-10T02:29:30.143Z,6.10
2017-09-10T02:32:01.982Z,5.43
2017-09-10T02:34:33.129Z,5.80
2017-09-10T02:37:04.306Z,5.70
2017-09-10T02:39:36.856Z,4.43
2017-09-10T02:42:07.952Z,4.87
2017-09-10T02:44:39.035Z,5.67
2017-09-10T02:47:10.222Z,5.27
2017-09-10T02:49:41.339Z,5.40
2017-09-10T02:52:13.695Z,4.77
2017-09-10T02:54:44.815Z,5.17
2017-09-10T02:57:16.414Z,3.73
2017-09-10T02:59:48.243Z,4.83
2017-09-10T03:02:19.340Z,5.30
2017-09-10T03:07:43.913Z,4.27
2017-09-10T03:10:15.758Z,3.90
2017-09-10T03:12:46.866Z,3.67
2017-09-10T03:15:18.033Z,3.90
2017-09-10T03:17:49.186Z,4.50
2017-09-10T03:20:20.399Z,4.03
2017-09-10T03:22:51.939Z,3.77
2017-09-10T03:25:23.199Z,4.40
2017-09-10T03:27:54.742Z,4.20
2017-09-10T03:30:25.972Z,4.37
2017-09-10T03:32:57.234Z,4.10
2017-09-10T03:35:28.703Z,4.10
2017-09-10T03:37:59.843Z,4.33
2017-09-10T03:40:31.276Z,4.70
2017-09-10T03:43:02.409Z,5.20
2017-09-10T03:45:33.750Z,5.60
2017-09-10T03:48:04.829Z,5.13
2017-09-10T03:50:35.993Z,5.20
2017-09-10T03:53:09.024Z,5.43
2017-09-10T03:55:40.258Z,5.13
2017-09-10T03:58:11.731Z,4.70
2017-09-10T04:00:42.886Z,5.10
2017-09-10T04:03:14.146Z,4.77
2017-09-10T04:05:45.355Z,4.60
2017-09-10T04:08:16.691Z,4.93
2017-09-10T04:10:48.329Z,5.37
2017-09-10T04:13:20.289Z,5.00
2017-09-10T04:15:51.546Z,5.07
2017-09-10T04:18:22.806Z,3.90
2017-09-10T04:20:53.986Z,5.67
2017-09-10T04:23:25.333Z,4.10
2017-09-10T04:25:56.526Z,5.00
2017-09-10T04:28:28.911Z,4.53
2017-09-10T04:31:00.113Z,4.60
2017-09-10T04:33:31.401Z,5.17
2017-09-10T04:36:02.581Z,4.17
2017-09-10T04:38:33.793Z,4.10
2017-09-10T04:41:06.112Z,3.83
2017-09-10T04:43:37.242Z,4.90
2017-09-10T04:46:08.403Z,4.83
2017-09-10T04:48:39.543Z,4.57
2017-09-10T04:51:10.661Z,4.70
2017-09-10T04:53:42.105Z,4.53
2017-09-10T04:56:13.301Z,4.30
2017-09-10T04:58:44.639Z,4.87
2017-09-10T05:01:15.891Z,4.57
2017-09-10T05:03:47.147Z,4.60
2017-09-10T05:06:18.340Z,6.00
2017-09-10T05:08:49.591Z,4.93
2017-09-10T05:11:21.160Z,5.10
2017-09-10T05:13:52.328Z,5.50
2017-09-10T05:16:23.469Z,4.80
2017-09-10T05:18:54.574Z,4.17
2017-09-10T05:21:26.672Z,4.37
2017-09-10T05:23:58.256Z,4.10
2017-09-10T05:26:29.342Z,3.80
2017-09-10T05:29:00.901Z,4.03
2017-09-10T05:31:31.932Z,3.73
2017-09-10T05:34:03.133Z,4.80
2017-09-10T05:36:34.289Z,4.17
2017-09-10T05:39:05.510Z,5.13
2017-09-10T05:41:37.974Z,3.67
2017-09-10T05:44:09.424Z,3.70
2017-09-10T05:46:41.237Z,3.63
2017-09-10T05:49:13.080Z,4.60
2017-09-10T05:51:44.904Z,3.83
2017-09-10T05:54:17.068Z,4.10
2017-09-10T05:56:48.897Z,4.63
2017-09-10T05:59:21.094Z,4.30
2017-09-10T06:01:52.898Z,4.87
2017-09-10T06:04:24.687Z,4.90
2017-09-10T06:06:56.552Z,4.30
2017-09-10T06:09:28.441Z,4.57
2017-09-10T06:12:00.472Z,4.80
2017-09-10T06:14:32.417Z,6.20
2017-09-10T06:17:04.151Z,5.73
2017-09-10T06:19:36.029Z,5.30
2017-09-10T06:22:07.924Z,5.37
2017-09-10T06:24:40.032Z,4.87
2017-09-10T06:27:13.546Z,5.37
2017-09-10T06:29:45.457Z,6.03
2017-09-10T06:32:17.311Z,7.03
2017-09-10T06:34:49.225Z,6.03
2017-09-10T06:37:21.184Z,6.90
2017-09-10T06:39:53.070Z,6.30
2017-09-10T06:42:25.087Z,6.83
2017-09-10T06:44:57.023Z,6.73
2017-09-10T06:47:28.940Z,8.33
2017-09-10T06:50:02.090Z,6.80
2017-09-10T06:52:33.956Z,6.50
2017-09-10T06:55:06.265Z,7.50
2017-09-10T06:57:38.268Z,8.10
2017-09-10T07:00:11.700Z,8.53
2017-09-10T07:02:44.300Z,8.00
2017-09-10T07:05:16.189Z,8.53
2017-09-10T07:07:48.518Z,7.90
2017-09-10T07:10:20.184Z,8.40
2017-09-10T07:12:54.824Z,8.13
2017-09-10T07:15:26.792Z,9.30
2017-09-10T07:17:58.627Z,8.53
2017-09-10T07:20:30.837Z,8.40
2017-09-10T07:23:03.086Z,8.57
2017-09-10T07:25:36.937Z,9.03
2017-09-10T07:28:08.998Z,8.00
2017-09-10T07:30:41.810Z,8.73
2017-09-10T07:33:14.599Z,8.30
2017-09-10T07:35:47.779Z,8.13
2017-09-10T07:38:21.977Z,9.00
2017-09-10T07:40:55.123Z,8.70
2017-09-10T07:43:27.356Z,8.70
2017-09-10T07:46:02.422Z,8.27
2017-09-10T07:48:35.019Z,8.27
2017-09-10T07:51:07.211Z,8.93
2017-09-10T07:53:39.265Z,8.63
2017-09-10T07:56:11.543Z,9.10
2017-09-10T07:58:43.579Z,8.73
2017-09-10T08:01:15.752Z,8.43
2017-09-10T08:03:48.032Z,8.23
2017-09-10T08:06:19.959Z,8.10
2017-09-10T08:08:52.208Z,7.53
2017-09-10T08:11:24.230Z,8.13
2017-09-10T08:13:56.123Z,8.50
2017-09-10T08:16:28.435Z,8.63
2017-09-10T08:19:00.489Z,8.33
2017-09-10T08:21:32.476Z,8.07
2017-09-10T08:24:04.333Z,7.77
2017-09-10T08:26:36.234Z,6.90
2017-09-10T08:29:08.110Z,7.90
2017-09-10T08:31:40.003Z,7.30
2017-09-10T08:34:12.361Z,8.17
2017-09-10T08:36:44.900Z,7.30
2017-09-10T08:39:17.127Z,7.80
2017-09-10T08:41:48.876Z,7.20
2017-09-10T08:44:20.702Z,7.63
2017-09-10T08:46:52.579Z,7.73
2017-09-10T08:49:24.315Z,7.50
2017-09-10T08:51:56.973Z,7.53
2017-09-10T08:54:28.799Z,7.13
2017-09-10T08:57:00.474Z,8.17
2017-09-10T08:59:32.488Z,8.33
2017-09-10T09:02:04.363Z,8.07
2017-09-10T09:04:36.181Z,9.37
2017-09-10T09:07:08.196Z,9.90
2017-09-10T09:09:40.448Z,10.03
2017-09-10T09:12:12.408Z,33.37
2017-09-10T09:14:44.337Z,23.50
2017-09-10T09:17:16.146Z,14.97
2017-09-10T09:19:47.998Z,17.40
2017-09-10T09:22:20.370Z,14.07
2017-09-10T09:24:52.302Z,10.40
2017-09-10T09:27:24.138Z,10.70
2017-09-10T09:29:55.976Z,9.67
2017-09-10T09:32:27.832Z,9.27
2017-09-10T09:35:00.216Z,9.97
2017-09-10T09:37:32.277Z,10.90
2017-09-10T09:40:04.147Z,13.10
2017-09-10T09:42:37.069Z,14.90
2017-09-10T09:45:09.737Z,15.60
2017-09-10T09:47:44.421Z,12.27
2017-09-10T09:50:16.720Z,11.83
2017-09-10T09:52:50.426Z,13.13
2017-09-10T09:55:23.234Z,12.60
2017-09-10T09:57:55.184Z,12.63
2017-09-10T10:00:27.986Z,11.67
2017-09-10T10:02:59.957Z,13.63
2017-09-10T10:05:32.287Z,13.27
2017-09-10T10:08:04.211Z,12.50
2017-09-10T10:10:36.145Z,12.10
2017-09-10T10:13:08.132Z,12.80
2017-09-10T10:15:39.960Z,13.77
2017-09-10T10:18:12.606Z,11.80
2017-09-10T10:20:45.566Z,11.17
2017-09-10T10:23:17.717Z,11.83
2017-09-10T10:25:49.569Z,11.50
2017-09-10T10:28:21.698Z,11.63
2017-09-10T10:30:53.606Z,10.33
2017-09-10T10:33:25.552Z,13.67
2017-09-10T10:35:57.836Z,12.47
2017-09-10T10:38:29.788Z,12.43
2017-09-10T10:41:01.627Z,12.77
2017-09-10T10:43:33.733Z,11.60
2017-09-10T10:46:05.621Z,11.30
2017-09-10T10:48:37.929Z,10.43
2017-09-10T10:51:09.838Z,10.10
2017-09-10T10:53:41.729Z,9.33
2017-09-10T10:56:13.648Z,11.13
2017-09-10T10:58:46.781Z,10.23
2017-09-10T11:01:21.240Z,10.77
2017-09-10T11:03:53.051Z,11.00
2017-09-10T11:06:25.289Z,11.20
2017-09-10T11:08:58.544Z,12.97
2017-09-10T11:11:30.370Z,11.77
2017-09-10T11:14:02.197Z,12.67
2017-09-10T11:16:33.997Z,11.03
2017-09-10T11:19:07.183Z,12.47
2017-09-10T11:21:39.124Z,11.00
2017-09-10T11:24:12.250Z,10.30
2017-09-10T11:26:44.068Z,10.40
2017-09-10T11:29:15.971Z,10.03
2017-09-10T11:31:50.576Z,9.60
2017-09-10T11:34:23.320Z,10.17
2017-09-10T11:36:55.455Z,8.43
2017-09-10T11:39:27.417Z,8.87
2017-09-10T11:41:59.287Z,7.70
2017-09-10T11:44:31.251Z,8.60
2017-09-10T11:47:03.010Z,7.60
2017-09-10T11:49:35.294Z,7.60
2017-09-10T11:52:07.183Z,7.43
2017-09-10T11:54:40.601Z,6.80
2017-09-10T11:57:12.438Z,7.17
2017-09-10T11:59:44.294Z,7.27
2017-09-10T12:02:16.593Z,7.27
2017-09-10T12:04:48.511Z,7.83
2017-09-10T12:07:20.334Z,7.63
2017-09-10T12:09:52.139Z,8.70
2017-09-10T12:12:24.069Z,9.53
2017-09-10T12:14:59.151Z,7.90
2017-09-10T12:17:30.870Z,7.90
2017-09-10T12:20:02.866Z,8.00
2017-09-10T12:22:34.817Z,7.43
2017-09-10T12:25:06.689Z,6.50
2017-09-10T12:27:38.417Z,7.10
2017-09-10T12:30:10.501Z,6.93
2017-09-10T12:32:43.748Z,6.67
2017-09-10T12:35:15.584Z,7.43
2017-09-10T12:37:47.442Z,10.00
2017-09-10T12:40:19.271Z,10.30
2017-09-10T12:42:51.241Z,5.83
2017-09-10T12:45:23.715Z,6.50
2017-09-10T12:47:55.774Z,7.37
2017-09-10T12:50:28.175Z,6.07
2017-09-10T12:53:00.760Z,7.47
2017-09-10T12:55:33.685Z,6.43
2017-09-10T12:58:05.722Z,7.70
2017-09-10T13:00:37.743Z,6.70
2017-09-10T13:03:11.057Z,6.27
2017-09-10T13:05:43.083Z,6.20
2017-09-10T13:08:15.051Z,6.70
2017-09-10T13:10:47.089Z,7.40
2017-09-10T13:13:19.042Z,6.43
2017-09-10T13:15:51.506Z,6.30
2017-09-10T13:18:23.366Z,6.50
2017-09-10T13:20:55.208Z,6.57
2017-09-10T13:23:26.828Z,5.77
2017-09-10T13:25:58.517Z,6.40
2017-09-10T13:28:30.899Z,6.23
2017-09-10T13:31:03.761Z,5.73
2017-09-10T13:33:38.667Z,6.70
2017-09-10T13:36:11.806Z,6.33
2017-09-10T13:38:44.433Z,6.80
2017-09-10T13:41:16.588Z,6.43
2017-09-10T13:43:49.010Z,5.93
2017-09-10T13:46:21.628Z,6.50
2017-09-10T13:48:53.703Z,6.30
2017-09-10T13:51:25.754Z,7.27
2017-09-10T13:53:59.390Z,6.57
2017-09-10T13:56:31.623Z,7.23
2017-09-10T13:59:04.068Z,5.50
2017-09-10T14:01:36.426Z,5.20
2017-09-10T14:04:08.668Z,6.00
2017-09-10T14:06:40.846Z,5.10
2017-09-10T14:09:13.130Z,5.07
2017-09-10T14:11:45.759Z,5.40
2017-09-10T14:14:17.682Z,5.03
2017-09-10T14:16:50.076Z,5.60
2017-09-10T14:19:22.234Z,5.33
2017-09-10T14:21:54.026Z,4.67
2017-09-10T14:24:26.042Z,5.90
2017-09-10T14:26:58.538Z,5.30
2017-09-10T14:29:30.798Z,5.97
2017-09-10T14:32:02.746Z,5.63
2017-09-10T14:34:34.980Z,6.27
2017-09-10T14:37:07.004Z,5.83
2017-09-10T14:39:39.000Z,6.67
2017-09-10T14:42:11.467Z,5.90
2017-09-10T14:44:43.325Z,5.90
2017-09-10T14:47:15.883Z,6.00
2017-09-10T14:49:47.731Z,5.20
2017-09-10T14:52:21.885Z,5.43
2017-09-10T14:54:54.225Z,5.47
2017-09-10T14:57:26.201Z,4.70
2017-09-10T14:59:59.940Z,5.87
2017-09-10T15:02:31.898Z,5.70
2017-09-10T15:05:05.402Z,5.70
2017-09-10T15:07:39.295Z,5.33
2017-09-10T15:10:11.140Z,5.27
2017-09-10T15:12:45.731Z,5.50
2017-09-10T15:15:18.737Z,5.33
2017-09-10T15:17:51.819Z,5.67
2017-09-10T15:20:25.417Z,5.30
2017-09-10T15:22:57.344Z,6.07
2017-09-10T15:25:29.358Z,5.67
2017-09-10T15:28:01.492Z,5.23
2017-09-10T15:30:36.904Z,6.30
2017-09-10T15:33:08.898Z,6.40
2017-09-10T15:35:41.587Z,6.07
2017-09-10T15:38:14.830Z,5.23
2017-09-10T15:40:48.447Z,6.27
2017-09-10T15:43:21.346Z,5.73
2017-09-10T15:45:53.163Z,5.10
2017-09-10T15:48:25.079Z,5.03
2017-09-10T15:50:56.825Z,4.77
2017-09-10T15:53:28.671Z,5.33
2017-09-10T15:56:02.823Z,6.00
2017-09-10T15:58:35.445Z,5.70
2017-09-10T16:01:07.662Z,6.43
2017-09-10T16:03:40.546Z,6.17
2017-09-10T16:06:12.418Z,5.67
2017-09-10T16:08:44.173Z,5.90
2017-09-10T16:11:17.513Z,5.60
2017-09-10T16:13:49.676Z,5.70
2017-09-10T16:16:24.248Z,5.10
2017-09-10T16:18:55.379Z,6.00
2017-09-10T16:21:26.371Z,5.57
2017-09-10T16:23:58.757Z,6.93
2017-09-10T16:26:33.857Z,6.90
2017-09-10T16:29:06.849Z,6.13
2017-09-10T16:31:38.107Z,5.53
2017-09-10T16:34:10.238Z,5.60
2017-09-10T16:36:41.290Z,6.13
2017-09-10T16:39:15.065Z,6.40
2017-09-10T16:41:47.087Z,5.47
2017-09-10T16:44:18.420Z,5.67
2017-09-10T16:46:51.837Z,5.37
2017-09-10T16:49:22.870Z,5.57
2017-09-10T16:51:53.965Z,7.50
2017-09-10T16:54:26.867Z,5.40
2017-09-10T16:59:36.282Z,5.63
2017-09-10T17:02:07.425Z,5.23
2017-09-10T17:04:38.577Z,5.63
2017-09-10T17:07:09.600Z,5.63
2017-09-10T17:09:41.008Z,5.50
2017-09-10T17:12:12.994Z,5.37
2017-09-10T17:14:44.000Z,5.70
2017-09-10T17:17:15.749Z,5.37
2017-09-10T17:19:49.759Z,5.10
2017-09-10T17:22:21.773Z,5.30
2017-09-10T17:24:52.797Z,6.00
2017-09-10T17:27:25.104Z,5.73
2017-09-10T17:29:56.197Z,6.33
2017-09-10T17:32:27.246Z,5.20
2017-09-10T17:34:59.728Z,5.60
2017-09-10T17:37:30.736Z,5.70
2017-09-10T17:40:02.946Z,5.47
2017-09-10T17:42:33.941Z,4.80
2017-09-10T17:45:05.005Z,5.67
2017-09-10T17:47:36.104Z,4.97
2017-09-10T17:50:07.113Z,5.43
2017-09-10T17:52:38.423Z,4.80
2017-09-10T17:57:44.747Z,5.60
2017-09-10T18:00:15.847Z,4.80
2017-09-10T18:02:46.952Z,5.80
2017-09-10T18:05:17.979Z,5.47
2017-09-10T18:07:49.054Z,5.53
2017-09-10T18:10:22.171Z,5.87
2017-09-10T18:12:53.201Z,4.90
2017-09-10T18:15:24.227Z,4.83
2017-09-10T18:17:55.995Z,5.80
2017-09-10T18:20:28.053Z,5.83
2017-09-10T18:23:00.436Z,5.70
2017-09-10T18:25:32.924Z,4.90
2017-09-10T18:28:06.088Z,5.40
2017-09-10T18:30:37.205Z,4.53
2017-09-10T18:33:08.274Z,5.33
2017-09-10T18:35:40.112Z,5.33
2017-09-10T18:38:12.805Z,5.00
2017-09-10T18:40:45.142Z,4.50
2017-09-10T18:43:17.587Z,5.57
2017-09-10T18:45:48.606Z,5.00
2017-09-10T18:48:21.307Z,5.67
2017-09-10T18:50:52.032Z,5.30
2017-09-10T18:53:22.739Z,5.87
2017-09-10T18:55:53.144Z,5.70
2017-09-10T18:58:24.149Z,6.07
2017-09-10T19:00:55.888Z,5.80
2017-09-10T19:03:26.284Z,5.10
2017-09-10T19:05:56.879Z,5.40
2017-09-10T19:08:27.478Z,5.10
2017-09-10T19:10:58.496Z,5.87
2017-09-10T19:13:29.174Z,5.17
2017-09-10T19:15:59.632Z,4.63
2017-09-10T19:18:30.215Z,6.03
2017-09-10T19:21:00.752Z,5.67
2017-09-10T19:23:31.921Z,5.23
2017-09-10T19:26:02.530Z,6.13
2017-09-10T19:28:34.556Z,5.33
2017-09-10T19:31:05.894Z,5.30
2017-09-10T19:33:36.265Z,5.13
2017-09-10T19:36:06.576Z,5.40
2017-09-10T19:38:36.971Z,6.17
2017-09-10T19:41:08.903Z,4.77
2017-09-10T19:43:39.245Z,4.70
2017-09-10T19:46:09.742Z,5.90
2017-09-10T19:48:40.330Z,6.10
2017-09-10T19:51:10.826Z,5.50
2017-09-10T19:53:41.113Z,5.73
2017-09-10T19:56:11.756Z,5.70
2017-09-10T19:58:42.730Z,5.27
2017-09-10T20:01:13.044Z,5.10
2017-09-10T20:03:43.425Z,6.57
2017-09-10T20:06:14.818Z,5.33
2017-09-10T20:08:45.120Z,5.70
2017-09-10T20:11:15.921Z,6.33
2017-09-10T20:13:46.206Z,7.73
2017-09-10T20:16:16.889Z,5.73
2017-09-10T20:18:47.158Z,4.60
2017-09-10T20:21:17.649Z,4.20
2017-09-10T20:23:48.194Z,3.33
2017-09-10T20:26:18.591Z,3.40
2017-09-10T20:28:49.223Z,4.13
2017-09-10T20:31:19.541Z,3.30
2017-09-10T20:33:49.841Z,2.40
2017-09-10T20:36:20.162Z,3.10
2017-09-10T20:38:51.222Z,3.73
2017-09-10T20:41:21.599Z,3.00
2017-09-10T20:43:51.903Z,2.40
2017-09-10T20:46:22.812Z,2.40
2017-09-10T20:48:53.131Z,2.40
2017-09-10T20:51:23.626Z,2.53
2017-09-10T20:53:54.719Z,2.83
2017-09-10T20:56:25.046Z,2.07
2017-09-10T20:58:56.047Z,2.87
2017-09-10T21:01:26.438Z,2.57
2017-09-10T21:03:57.434Z,2.30
2017-09-10T21:06:28.641Z,2.87
2017-09-10T21:08:58.982Z,2.47
2017-09-10T21:11:29.424Z,3.00
2017-09-10T21:13:59.824Z,2.23
2017-09-10T21:16:31.306Z,3.10
2017-09-10T21:19:01.688Z,2.57
2017-09-10T21:21:32.005Z,5.20
2017-09-10T21:24:02.304Z,2.73
2017-09-10T21:26:32.704Z,2.97
2017-09-10T21:29:03.837Z,2.47
2017-09-10T21:31:34.185Z,3.03
2017-09-10T21:34:06.022Z,2.80
2017-09-10T21:36:36.516Z,2.40
2017-09-10T21:39:06.963Z,2.90
2017-09-10T21:41:38.034Z,2.77
2017-09-10T21:44:08.426Z,3.40
2017-09-10T21:46:40.030Z,3.27
2017-09-10T21:49:10.642Z,3.17
2017-09-10T21:51:41.884Z,3.23
2017-09-10T21:54:12.297Z,2.67
2017-09-10T21:56:42.703Z,3.30
2017-09-10T21:59:13.081Z,2.83
2017-09-10T22:01:43.407Z,2.50
2017-09-10T22:04:14.223Z,2.90
2017-09-10T22:06:44.638Z,2.20
2017-09-10T22:09:15.046Z,2.37
2017-09-10T22:11:45.385Z,2.77
2017-09-10T22:14:15.749Z,2.27
2017-09-10T22:16:46.347Z,2.20
2017-09-10T22:19:16.692Z,2.10
2017-09-10T22:21:47.925Z,2.10
2017-09-10T22:24:18.284Z,2.13
2017-09-10T22:26:48.614Z,2.10
2017-09-10T22:29:19.904Z,2.10
2017-09-10T22:31:50.226Z,3.40
2017-09-10T22:34:21.834Z,1.93
2017-09-10T22:36:52.189Z,2.20
2017-09-10T22:39:23.368Z,2.53
2017-09-10T22:41:53.783Z,2.63
2017-09-10T22:44:24.167Z,2.27
2017-09-10T22:46:54.539Z,2.47
2017-09-10T22:49:25.348Z,2.73
2017-09-10T22:51:57.606Z,2.10
2017-09-10T22:54:29.019Z,2.00
2017-09-10T22:56:59.423Z,2.27
2017-09-10T22:59:29.798Z,2.33
2017-09-10T23:02:00.167Z,2.37
2017-09-10T23:04:31.818Z,2.47
2017-09-10T23:07:02.246Z,1.90
2017-09-10T23:09:33.784Z,1.97
2017-09-10T23:12:04.129Z,2.00
2017-09-10T23:14:34.512Z,2.03
2017-09-10T23:17:04.908Z,1.90
2017-09-10T23:19:35.278Z,2.70
2017-09-10T23:22:06.851Z,2.40
2017-09-10T23:24:37.160Z,2.00
2017-09-10T23:27:07.565Z,2.10
2017-09-10T23:29:37.895Z,1.80
2017-09-10T23:32:08.242Z,1.77
2017-09-10T23:34:39.524Z,2.00
2017-09-10T23:37:09.835Z,1.70
2017-09-10T23:39:40.765Z,1.80
2017-09-10T23:42:11.070Z,1.87
2017-09-10T23:44:41.407Z,1.80
2017-09-10T23:47:11.812Z,1.50
2017-09-10T23:49:42.125Z,2.70
2017-09-10T23:52:30.089Z,2.07
2017-09-10T23:55:00.543Z,1.83
2017-09-10T23:57:30.968Z,1.60
